Time;durP1;ratioP1;P1;durP2;ratioP2;P2;SDS_P1;SDS_P2;PMS_P1;PMS_P2;Temp;Humidity;BMP_temperature;BMP_pressure;BME280_temperature;BME280_humidity;BME280_pressure;Samples;Min_cycle;Max_cycle;Signal;HPM_P1;HPM_P2
2024/04/01 00:01:16;;;;;;;14.43;1.88;;;;;;;-145.69;61.31;52133.47;5072822;28;20198;-79
2024/04/01 00:03:43;;;;;;;13.10;2.28;;;;;;;-145.69;61.17;52131.50;5072000;28;20672;-79
2024/04/01 00:06:08;;;;;;;13.57;2.00;;;;;;;-145.69;60.61;52131.50;5072960;28;20199;-79
2024/04/01 00:08:35;;;;;;;6.70;1.77;;;;;;;-145.69;60.44;52119.63;5077589;28;20190;-80
2024/04/01 00:11:00;;;;;;;11.90;2.00;;;;;;;-145.69;60.71;52117.63;5091900;28;20194;-79
2024/04/01 00:13:27;;;;;;;14.33;2.70;;;;;;;-145.69;60.46;52115.66;5072712;28;20213;-79
2024/04/01 00:15:52;;;;;;;12.17;1.80;;;;;;;-145.69;60.21;52113.66;5072079;28;20230;-79
2024/04/01 00:18:20;;;;;;;9.90;1.93;;;;;;;-145.69;60.22;52115.66;5072353;28;20209;-79
2024/04/01 00:20:54;;;;;;;9.30;2.10;;;;;;;-145.69;59.99;52115.66;5072454;28;20211;-79
2024/04/01 00:23:21;;;;;;;11.87;1.97;;;;;;;-145.69;60.11;52125.56;5072670;28;20264;-79
2024/04/01 00:25:46;;;;;;;13.40;2.57;;;;;;;-145.69;60.54;52121.59;5072682;28;20210;-79
2024/04/01 00:28:13;;;;;;;8.37;2.43;;;;;;;-145.69;60.41;52097.84;5072696;28;20665;-80
2024/04/01 00:30:38;;;;;;;12.82;2.25;;;;;;;-145.69;61.14;52111.69;5071528;28;20198;-79
2024/04/01 00:33:05;;;;;;;12.10;1.90;;;;;;;-145.69;60.61;52123.56;5071840;28;20202;-78
2024/04/01 00:35:32;;;;;;;10.03;2.03;;;;;;;-145.69;60.42;52127.53;5071843;28;20313;-79
2024/04/01 00:37:59;;;;;;;14.53;2.70;;;;;;;-145.69;60.51;52139.41;5072253;28;20203;-79
2024/04/01 00:40:24;;;;;;;15.13;2.30;;;;;;;-145.69;60.39;52115.66;5075815;28;20195;-78
2024/04/01 00:42:51;;;;;;;10.93;2.20;;;;;;;-145.69;60.95;52147.34;5072381;28;20213;-78
2024/04/01 00:45:16;;;;;;;12.27;2.60;;;;;;;-145.69;60.61;52119.63;5072092;28;20205;-78
2024/04/01 00:47:43;;;;;;;11.10;2.37;;;;;;;-145.69;60.61;52109.72;5072285;28;20281;-77
2024/04/01 00:50:09;;;;;;;9.57;2.30;;;;;;;-145.69;59.61;52095.84;5072259;28;20206;-78
2024/04/01 00:52:37;;;;;;;12.63;2.20;;;;;;;-145.69;59.78;52082.00;5072136;28;20199;-79
2024/04/01 00:55:03;;;;;;;13.50;2.03;;;;;;;-145.69;59.32;52089.91;5072270;28;20223;-80
2024/04/01 00:57:36;;;;;;;7.87;1.63;;;;;;;-145.69;58.99;52127.53;5071959;28;20199;-80
2024/04/01 01:00:02;;;;;;;13.30;2.03;;;;;;;-145.69;59.21;52127.53;5072108;28;20207;-80
2024/04/01 01:02:29;;;;;;;7.93;2.13;;;;;;;-145.69;59.11;52115.66;5072307;28;20797;-79
2024/04/01 01:04:55;;;;;;;12.93;2.17;;;;;;;-145.69;58.61;52129.50;5071678;28;20202;-79
2024/04/01 01:07:23;;;;;;;4.87;1.47;;;;;;;-145.69;58.94;52155.25;5072031;28;20407;-79
2024/04/01 01:09:50;;;;;;;13.10;3.10;;;;;;;-145.69;58.50;52139.41;5086176;28;20202;-79
2024/04/01 01:12:17;;;;;;;8.13;1.70;;;;;;;-145.69;58.45;52127.53;5087699;28;20191;-79
2024/04/01 01:14:42;;;;;;;9.13;1.53;;;;;;;-145.69;58.16;52125.56;5071405;28;20223;-79
2024/04/01 01:17:09;;;;;;;14.25;1.80;;;;;;;-145.69;58.49;52113.66;5071125;28;20719;-79
2024/04/01 01:19:37;;;;;;;7.87;1.73;;;;;;;-145.69;58.81;52103.78;5072230;28;20209;-78
2024/04/01 01:22:05;;;;;;;7.37;1.93;;;;;;;-145.69;58.97;52129.50;5072062;28;20281;-79
2024/04/01 01:24:32;;;;;;;7.53;2.00;;;;;;;-145.69;60.13;52111.69;5071643;28;20213;-79
2024/04/01 01:26:59;;;;;;;10.77;2.40;;;;;;;-145.69;60.14;52157.25;5070885;28;20658;-79
2024/04/01 01:29:24;;;;;;;15.43;2.40;;;;;;;-145.69;60.39;52119.63;5072179;28;20199;-79
2024/04/01 01:31:51;;;;;;;13.10;2.83;;;;;;;-145.69;60.83;52135.47;5071755;28;20209;-79
2024/04/01 01:34:17;;;;;;;12.57;1.93;;;;;;;-145.69;60.84;52135.47;5071743;28;20630;-79
2024/04/01 01:36:44;;;;;;;12.43;2.37;;;;;;;-145.69;60.77;52153.28;5068709;28;20248;-79
2024/04/01 01:39:12;;;;;;;11.13;2.33;;;;;;;-145.69;61.37;52159.22;5071069;28;20218;-78
2024/04/01 01:41:40;;;;;;;10.03;2.70;;;;;;;-145.69;61.87;52139.41;5071516;28;20593;-79
2024/04/01 01:44:05;;;;;;;11.40;2.30;;;;;;;-145.69;62.03;52123.56;5071580;28;20195;-79
2024/04/01 01:46:32;;;;;;;10.63;2.87;;;;;;;-145.69;62.71;52123.56;5071562;28;20206;-79
2024/04/01 01:48:58;;;;;;;12.33;2.80;;;;;;;-145.69;62.99;52161.19;5074929;28;20206;-79
2024/04/01 01:51:26;;;;;;;9.73;2.23;;;;;;;-145.69;63.36;52123.56;5075061;28;20214;-78
2024/04/01 01:53:52;;;;;;;14.70;2.47;;;;;;;-145.69;62.95;52167.13;5074916;28;20210;-80
2024/04/01 01:56:21;;;;;;;8.77;2.10;;;;;;;-145.69;63.39;52127.53;5074721;28;20230;-79
2024/04/01 01:58:48;;;;;;;9.83;2.20;;;;;;;-145.69;64.00;52135.47;5075118;28;20249;-79
2024/04/01 02:01:17;;;;;;;7.80;2.23;;;;;;;-145.69;63.46;52139.41;5074731;28;20301;-79
2024/04/01 02:03:44;;;;;;;4.43;1.80;;;;;;;-145.69;63.66;52157.25;5074817;28;20194;-79
2024/04/01 02:06:17;;;;;;;14.00;2.53;;;;;;;-145.69;64.57;52133.47;5074791;28;20289;-79
2024/04/01 02:08:43;;;;;;;14.30;2.53;;;;;;;-145.69;64.51;52127.53;5087625;28;20194;-79
2024/04/01 02:11:12;;;;;;;6.30;2.03;;;;;;;-145.69;64.32;52123.56;5086484;28;20197;-78
2024/04/01 02:13:38;;;;;;;12.57;2.33;;;;;;;-145.69;64.95;52117.63;5074953;28;20203;-79
2024/04/01 02:16:08;;;;;;;4.37;2.20;;;;;;;-145.69;64.37;52131.50;5074623;28;20265;-79
2024/04/01 02:18:36;;;;;;;6.80;1.97;;;;;;;-145.69;64.81;52175.06;5074834;28;20199;-80
2024/04/01 02:21:06;;;;;;;8.83;1.90;;;;;;;-145.69;64.94;52151.28;5074096;28;20234;-79
2024/04/01 02:23:32;;;;;;;9.83;2.10;;;;;;;-145.69;64.51;52151.28;5074814;28;20202;-80
2024/04/01 02:26:01;;;;;;;6.27;2.10;;;;;;;-145.69;63.96;52184.97;5074449;28;20622;-79
2024/04/01 02:28:27;;;;;;;4.43;1.70;;;;;;;-145.69;64.49;52119.63;5074444;28;20199;-80
2024/04/01 02:30:54;;;;;;;8.13;2.00;;;;;;;-145.69;64.04;52155.25;5074667;28;20199;-80
2024/04/01 02:33:20;;;;;;;11.73;2.20;;;;;;;-145.69;64.30;52135.47;5074501;28;20207;-79
2024/04/01 02:35:47;;;;;;;8.60;2.40;;;;;;;-145.69;64.36;52163.19;5073592;28;20226;-79
2024/04/01 02:38:13;;;;;;;8.17;1.80;;;;;;;-145.69;64.86;52143.38;5077306;28;20203;-80
2024/04/01 02:40:39;;;;;;;9.57;2.20;;;;;;;-145.69;65.21;52133.47;5074472;28;20202;-80
2024/04/01 02:43:04;;;;;;;6.50;2.13;;;;;;;-145.69;65.09;52143.38;5074445;28;20245;-79
2024/04/01 02:45:34;;;;;;;4.70;1.67;;;;;;;-145.69;64.69;52167.13;5074362;28;20199;-79
2024/04/01 02:47:59;;;;;;;6.50;1.60;;;;;;;-145.69;64.81;52165.16;5073876;28;20203;-80
2024/04/01 02:50:27;;;;;;;7.77;2.03;;;;;;;-145.69;64.95;52155.25;5074095;28;20210;-80
2024/04/01 02:52:52;;;;;;;4.33;1.63;;;;;;;-145.69;64.90;52143.38;5074160;28;20573;-80
2024/04/01 02:55:22;;;;;;;6.23;1.93;;;;;;;-145.69;64.29;52171.09;5073809;28;20222;-80
2024/04/01 02:57:47;;;;;;;6.70;1.50;;;;;;;-145.69;64.54;52157.25;5073545;28;20206;-80
2024/04/01 03:00:17;;;;;;;4.17;1.47;;;;;;;-145.69;64.36;52127.53;5073825;28;20518;-80
2024/04/01 03:02:44;;;;;;;4.20;1.50;;;;;;;-145.69;63.94;52151.28;5073505;28;20223;-80
2024/04/01 03:05:11;;;;;;;8.50;2.40;;;;;;;-145.69;63.99;52155.25;5073688;28;20210;-79
2024/04/01 03:07:49;;;;;;;5.73;1.93;;;;;;;-145.69;64.00;52143.38;5077262;28;20202;-80
2024/04/01 03:10:15;;;;;;;5.40;2.20;;;;;;;-145.69;63.86;52157.25;5093765;28;20609;-80
2024/04/01 03:12:43;;;;;;;10.60;2.20;;;;;;;-145.69;63.79;52135.47;5093865;28;20259;-80
2024/04/01 03:15:16;;;;;;;8.40;1.77;;;;;;;-145.69;63.96;52186.94;5093079;28;20248;-79
2024/04/01 03:17:45;;;;;;;8.13;2.10;;;;;;;-145.69;64.51;52163.19;5094070;28;20206;-80
2024/04/01 03:20:12;;;;;;;6.47;2.20;;;;;;;-145.69;64.48;52157.25;5090041;28;20187;-79
2024/04/01 03:22:40;;;;;;;6.30;1.70;;;;;;;-145.69;64.26;52161.19;5073267;28;20195;-78
2024/04/01 03:25:07;;;;;;;5.73;1.90;;;;;;;-145.69;64.35;52165.16;5073395;28;20298;-79
2024/04/01 03:27:33;;;;;;;7.57;2.00;;;;;;;-145.69;64.22;52184.97;5073493;28;20264;-78
2024/04/01 03:29:59;;;;;;;4.67;1.63;;;;;;;-145.69;64.60;52137.44;5072979;28;20599;-79
2024/04/01 03:32:25;;;;;;;3.97;1.50;;;;;;;-145.69;64.28;52131.50;5072970;28;20650;-79
2024/04/01 03:34:51;;;;;;;4.43;1.63;;;;;;;-145.69;64.68;52147.34;5072313;28;20260;-79
2024/04/01 03:37:20;;;;;;;5.97;1.50;;;;;;;-145.69;64.36;52173.09;5073585;28;20210;-80
2024/04/01 03:39:48;;;;;;;10.17;1.93;;;;;;;-145.69;64.95;52129.50;5075436;28;20202;-79
2024/04/01 03:42:15;;;;;;;11.53;2.33;;;;;;;-145.69;64.37;52159.22;5073195;28;20305;-79
2024/04/01 03:44:42;;;;;;;8.27;1.80;;;;;;;-145.69;64.33;52145.34;5066195;28;20203;-79
2024/04/01 03:47:10;;;;;;;5.97;1.60;;;;;;;-145.69;64.35;52179.03;5063692;28;20632;-79
2024/04/01 03:49:41;;;;;;;12.00;1.97;;;;;;;-145.69;64.61;52123.56;5073060;28;20202;-79
2024/04/01 03:52:09;;;;;;;14.23;2.20;;;;;;;-145.69;64.61;52155.25;5072635;28;20198;-78
2024/04/01 03:54:38;;;;;;;6.80;2.33;;;;;;;-145.69;64.76;52194.88;5072154;28;20191;-79
2024/04/01 03:57:05;;;;;;;5.80;2.00;;;;;;;-145.69;64.76;52181.00;5071959;28;20234;-79
2024/04/01 03:59:32;;;;;;;8.47;1.90;;;;;;;-145.69;64.25;52143.38;5073074;28;20213;-78
2024/04/01 04:02:00;;;;;;;3.70;1.30;;;;;;;-145.69;65.01;52153.28;5072894;28;20206;-80
2024/04/01 04:04:26;;;;;;;5.93;1.63;;;;;;;-145.69;64.94;52161.19;5072884;28;20237;-79
2024/04/01 04:06:55;;;;;;;6.83;1.80;;;;;;;-145.69;65.15;52151.28;5072787;28;20213;-80
2024/04/01 04:09:21;;;;;;;12.93;1.77;;;;;;;-145.69;65.10;52163.19;5072109;28;20240;-80
2024/04/01 04:11:49;;;;;;;10.93;2.23;;;;;;;-145.69;64.80;52155.25;5071938;28;20206;-79
2024/04/01 04:14:18;;;;;;;6.93;1.40;;;;;;;-145.69;64.57;52171.09;5072366;28;20199;-79
2024/04/01 04:16:44;;;;;;;8.67;1.83;;;;;;;-145.69;65.14;52204.75;5072235;28;20329;-78
2024/04/01 04:19:10;;;;;;;6.53;2.00;;;;;;;-145.69;64.48;52155.25;5072340;28;20653;-78
2024/04/01 04:21:36;;;;;;;6.77;2.03;;;;;;;-145.69;64.96;52155.25;5072738;28;20207;-79
2024/04/01 04:24:03;;;;;;;4.33;1.53;;;;;;;-145.69;64.62;52165.16;5072621;28;20642;-80
2024/04/01 04:26:29;;;;;;;10.03;1.87;;;;;;;-145.69;65.22;52139.41;5072439;28;20202;-78
2024/04/01 04:28:55;;;;;;;14.57;2.30;;;;;;;-145.69;65.28;52184.97;5071967;28;20198;-79
2024/04/01 04:31:25;;;;;;;7.80;1.93;;;;;;;-145.69;64.93;52141.41;5072059;28;20556;-79
2024/04/01 04:33:54;;;;;;;5.53;1.73;;;;;;;-145.69;64.46;52143.38;5071695;28;20673;-78
2024/04/01 04:36:27;;;;;;;13.23;2.20;;;;;;;-145.69;65.14;52141.41;5072274;28;20230;-78
2024/04/01 04:38:56;;;;;;;13.93;2.20;;;;;;;-145.69;64.81;52163.19;5072524;28;20256;-79
2024/04/01 04:41:22;;;;;;;6.37;2.03;;;;;;;-145.69;64.83;52159.22;5072102;28;20649;-79
2024/04/01 04:43:54;;;;;;;8.13;2.60;;;;;;;-145.69;64.70;52143.38;5072467;28;20203;-79
2024/04/01 04:46:24;;;;;;;7.03;1.80;;;;;;;-145.69;64.34;52161.19;5072443;28;20226;-79
2024/04/01 04:48:52;;;;;;;7.17;2.20;;;;;;;-145.69;64.65;52151.28;5071781;28;20700;-78
2024/04/01 04:51:18;;;;;;;6.03;2.13;;;;;;;-145.69;65.18;52155.25;5072338;28;20234;-79
2024/04/01 04:53:46;;;;;;;6.13;1.63;;;;;;;-145.69;65.88;52135.47;5072194;28;20229;-78
2024/04/01 04:56:13;;;;;;;10.03;2.10;;;;;;;-145.69;66.41;52139.41;5071993;28;20226;-80
2024/04/01 04:58:42;;;;;;;13.57;2.37;;;;;;;-145.69;66.27;52167.13;5072328;28;20285;-79
2024/04/01 05:01:10;;;;;;;7.73;2.33;;;;;;;-145.69;66.20;52133.47;5072158;28;20202;-79
2024/04/01 05:03:38;;;;;;;5.57;1.80;;;;;;;-145.69;67.03;52129.50;5072159;28;20246;-79
2024/04/01 05:06:03;;;;;;;6.63;2.40;;;;;;;-145.69;66.78;52149.31;5072097;28;21727;-80
2024/04/01 05:08:32;;;;;;;6.83;3.03;;;;;;;-145.69;67.39;52179.03;5071095;28;20195;-80
2024/04/01 05:11:00;;;;;;;10.67;2.80;;;;;;;-145.69;66.88;52163.19;5072219;28;20547;-79
2024/04/01 05:13:26;;;;;;;9.57;2.90;;;;;;;-145.69;67.00;52133.47;5071805;28;20882;-79
2024/04/01 05:15:54;;;;;;;10.50;2.47;;;;;;;-145.69;67.46;52157.25;5071686;28;20249;-79
2024/04/01 05:18:21;;;;;;;9.13;2.03;;;;;;;-145.69;67.84;52159.22;5071824;28;20202;-79
2024/04/01 05:20:48;;;;;;;10.27;2.00;;;;;;;-145.69;68.12;52135.47;5072220;28;20565;-79
2024/04/01 05:23:20;;;;;;;9.70;2.27;;;;;;;-145.69;67.73;52139.41;5075181;28;20684;-80
2024/04/01 05:25:48;;;;;;;4.83;1.83;;;;;;;-145.69;68.17;52131.50;5074998;28;20191;-79
2024/04/01 05:28:14;;;;;;;3.87;2.13;;;;;;;-145.69;68.71;52179.03;5075146;28;20198;-79
2024/04/01 05:30:43;;;;;;;5.47;2.10;;;;;;;-145.69;68.84;52151.28;5075470;28;20195;-80
2024/04/01 05:33:17;;;;;;;4.33;2.03;;;;;;;-145.69;68.32;52155.25;5075314;28;20210;-79
2024/04/01 05:35:44;;;;;;;5.00;1.80;;;;;;;-145.69;68.62;52163.19;5075259;28;20776;-79
2024/04/01 05:38:11;;;;;;;12.50;2.37;;;;;;;-145.69;68.97;52137.44;5075400;28;20278;-79
2024/04/01 05:40:38;;;;;;;3.20;1.90;;;;;;;-145.69;68.59;52157.25;5074827;28;20202;-79
2024/04/01 05:43:04;;;;;;;5.13;1.50;;;;;;;-145.69;69.37;52119.63;5075071;28;20244;-79
2024/04/01 05:45:31;;;;;;;5.87;1.50;;;;;;;-145.69;69.46;52175.06;5075230;28;20222;-79
2024/04/01 05:47:58;;;;;;;5.30;1.57;;;;;;;-145.69;69.79;52159.22;5075367;28;20203;-79
2024/04/01 05:50:34;;;;;;;5.17;1.80;;;;;;;-145.69;70.04;52147.34;5075213;28;20281;-79
2024/04/01 05:52:59;;;;;;;13.97;1.43;;;;;;;-145.69;69.91;52155.25;5075235;28;20209;-78
2024/04/01 05:55:27;;;;;;;8.43;2.27;;;;;;;-145.69;70.04;52155.25;5071418;28;20632;-78
2024/04/01 05:57:53;;;;;;;6.60;1.70;;;;;;;-145.69;69.46;52181.00;5074974;28;20199;-78
2024/04/01 06:00:21;;;;;;;6.50;1.57;;;;;;;-145.69;69.21;52179.03;5074786;28;20199;-78
2024/04/01 06:02:49;;;;;;;5.83;1.97;;;;;;;-145.69;68.88;52175.06;5074689;28;20207;-79
2024/04/01 06:05:18;;;;;;;6.50;1.67;;;;;;;-145.69;69.77;52139.41;5074890;28;20290;-78
2024/04/01 06:07:44;;;;;;;9.13;1.80;;;;;;;-145.69;69.81;52157.25;5074410;28;20653;-79
2024/04/01 06:10:11;;;;;;;5.43;1.50;;;;;;;-145.69;69.88;52169.13;5075082;28;20210;-78
2024/04/01 06:12:38;;;;;;;4.17;1.50;;;;;;;-145.69;69.61;52163.19;5074808;28;20198;-78
2024/04/01 06:15:05;;;;;;;7.13;1.50;;;;;;;-145.69;69.34;52177.03;5074497;28;20202;-78
2024/04/01 06:17:33;;;;;;;3.67;1.60;;;;;;;-145.69;69.28;52131.50;5074560;28;20225;-79
2024/04/01 06:20:04;;;;;;;2.90;1.20;;;;;;;-145.69;69.61;52194.88;5073651;28;20224;-79
2024/04/01 06:22:31;;;;;;;2.47;1.33;;;;;;;-145.69;69.16;52153.28;5074733;28;20252;-79
2024/04/01 06:24:58;;;;;;;5.50;1.40;;;;;;;-145.69;69.06;52161.19;5074606;28;20645;-78
2024/04/01 06:27:24;;;;;;;2.30;1.40;;;;;;;-145.69;69.00;52200.81;5074308;28;20874;-79
2024/04/01 06:29:52;;;;;;;4.17;1.20;;;;;;;-145.69;69.39;52169.13;5074520;28;20207;-78
2024/04/01 06:32:17;;;;;;;2.93;1.60;;;;;;;-145.69;69.27;52159.22;5074475;28;20205;-79
2024/04/01 06:34:47;;;;;;;4.07;1.40;;;;;;;-145.69;67.82;52155.25;5073656;28;20282;-78
2024/04/01 06:37:13;;;;;;;2.00;1.07;;;;;;;-145.69;67.38;52155.25;5073680;28;20351;-78
2024/04/01 06:39:43;;;;;;;3.13;1.30;;;;;;;-145.69;67.08;52133.47;5074505;28;20429;-78
2024/04/01 06:42:08;;;;;;;1.97;1.10;;;;;;;-145.69;66.84;52119.63;5074530;28;20237;-79
2024/04/01 06:44:35;;;;;;;6.00;1.30;;;;;;;-145.69;66.43;52139.41;5073630;28;20230;-79
2024/04/01 06:47:02;;;;;;;2.40;1.47;;;;;;;-145.69;66.66;52147.34;5074013;28;20187;-79
2024/04/01 06:49:29;;;;;;;1.83;1.33;;;;;;;-145.69;66.21;52175.06;5073916;28;20230;-78
2024/04/01 06:51:55;;;;;;;4.40;1.43;;;;;;;-145.69;66.13;52161.19;5074006;28;20205;-78
2024/04/01 06:54:24;;;;;;;3.97;1.50;;;;;;;-145.69;65.95;52149.31;5073673;28;20561;-78
2024/04/01 06:56:50;;;;;;;3.43;1.60;;;;;;;-145.69;66.02;52159.22;5074123;28;20245;-78
2024/04/01 06:59:16;;;;;;;3.77;2.13;;;;;;;-145.69;66.19;52177.03;5073760;28;20198;-79
2024/04/01 07:01:42;;;;;;;6.13;2.50;;;;;;;-145.69;66.54;52165.16;5073394;28;20668;-79
2024/04/01 07:04:11;;;;;;;1.60;1.37;;;;;;;-145.69;66.68;52143.38;5074039;28;20213;-76
2024/04/01 07:06:40;;;;;;;1.07;0.80;;;;;;;-145.69;66.80;52186.94;5073098;28;20199;-79
2024/04/01 07:09:07;;;;;;;25.80;10.27;;;;;;;-145.69;66.66;52139.41;5073949;28;20202;-79
2024/04/01 07:11:32;;;;;;;10.73;4.73;;;;;;;-145.69;66.05;52139.41;5073181;28;20198;-78
2024/04/01 07:13:59;;;;;;;12.60;7.57;;;;;;;-145.69;66.22;52119.63;5073638;28;20206;-79
2024/04/01 07:16:25;;;;;;;12.20;4.47;;;;;;;-145.69;66.43;52147.34;5073426;28;20231;-78
2024/04/01 07:18:51;;;;;;;5.47;2.60;;;;;;;-145.69;66.28;52186.94;5073262;28;20209;-79
2024/04/01 07:21:21;;;;;;;3.30;1.90;;;;;;;-145.69;65.72;52169.13;5073396;28;20198;-78
2024/04/01 07:23:49;;;;;;;3.90;1.80;;;;;;;-145.69;65.26;52147.34;5073306;28;20226;-79
2024/04/01 07:26:14;;;;;;;3.87;1.53;;;;;;;-145.69;64.85;52167.13;5073544;28;20199;-79
2024/04/01 07:28:41;;;;;;;2.17;1.30;;;;;;;-145.69;65.45;52157.25;5073238;28;20237;-79
2024/04/01 07:31:07;;;;;;;7.27;3.20;;;;;;;-145.69;65.41;52161.19;5073015;28;20202;-79
2024/04/01 07:33:34;;;;;;;2.90;2.07;;;;;;;-145.69;65.75;52151.28;5073382;28;20305;-79
2024/04/01 07:35:59;;;;;;;1.83;1.20;;;;;;;-145.69;64.69;52135.47;5072503;28;20223;-77
2024/04/01 07:38:27;;;;;;;4.03;1.50;;;;;;;-145.69;64.96;52159.22;5072962;28;20207;-79
2024/04/01 07:40:55;;;;;;;2.17;1.40;;;;;;;-145.69;65.02;52143.38;5073159;28;20366;-78
2024/04/01 07:43:22;;;;;;;1.43;1.10;;;;;;;-145.69;64.98;52151.28;5073218;28;20205;-79
2024/04/01 07:45:50;;;;;;;1.70;0.77;;;;;;;-145.69;64.92;52135.47;5072289;28;20233;-78
2024/04/01 07:48:22;;;;;;;2.07;1.70;;;;;;;-145.69;64.14;52155.25;5072599;28;20289;-78
2024/04/01 07:50:49;;;;;;;1.03;0.93;;;;;;;-145.69;64.66;52147.34;5072998;28;20210;-79
2024/04/01 07:53:15;;;;;;;1.47;0.97;;;;;;;-145.69;64.29;52153.28;5072611;28;20198;-78
2024/04/01 07:55:45;;;;;;;2.60;1.77;;;;;;;-145.69;64.38;52147.34;5072679;28;20199;-79
2024/04/01 07:58:11;;;;;;;1.60;1.27;;;;;;;-145.69;64.27;52163.19;5072631;28;20191;-78
2024/04/01 08:00:38;;;;;;;2.20;0.90;;;;;;;-145.69;63.73;52196.84;5072823;28;20209;-79
2024/04/01 08:03:06;;;;;;;0.83;0.70;;;;;;;-145.69;62.95;52186.94;5071217;28;20594;-78
2024/04/01 08:05:33;;;;;;;0.53;0.53;;;;;;;-145.69;63.32;52161.19;5070653;28;20230;-78
2024/04/01 08:08:00;;;;;;;0.50;0.50;;;;;;;-145.69;62.99;52171.09;5072232;28;20290;-78
2024/04/01 08:10:27;;;;;;;0.80;0.70;;;;;;;-145.69;62.92;52165.16;5072467;28;20199;-80
2024/04/01 08:12:54;;;;;;;2.60;1.20;;;;;;;-145.69;62.58;52141.41;5072686;28;20199;-78
2024/04/01 08:15:20;;;;;;;0.93;0.80;;;;;;;-145.69;62.21;52179.03;5071930;28;20624;-78
2024/04/01 08:17:48;;;;;;;0.90;0.60;;;;;;;-145.69;61.31;52159.22;5072473;28;20692;-78
2024/04/01 08:20:14;;;;;;;0.50;0.50;;;;;;;-145.69;60.43;52155.25;5072561;28;20203;-79
2024/04/01 08:22:42;;;;;;;0.57;0.57;;;;;;;-145.69;59.61;52159.22;5072302;28;20236;-78
2024/04/01 08:25:10;;;;;;;0.53;0.53;;;;;;;-145.69;58.89;52173.09;5072020;28;20236;-78
2024/04/01 08:27:36;;;;;;;0.73;0.70;;;;;;;-145.69;59.26;52167.13;5072324;28;20252;-77
2024/04/01 08:30:04;;;;;;;0.60;0.50;;;;;;;-145.69;58.18;52151.28;5072534;28;20809;-78
2024/04/01 08:32:29;;;;;;;0.40;0.40;;;;;;;-145.69;57.48;52157.25;5071743;28;20210;-79
2024/04/01 08:34:56;;;;;;;2.83;0.63;;;;;;;-145.69;55.84;52177.03;5072261;28;20194;-77
2024/04/01 08:37:24;;;;;;;0.50;0.50;;;;;;;-145.69;54.63;52149.31;5072042;28;20227;-78
2024/04/01 08:39:53;;;;;;;0.50;0.50;;;;;;;-145.69;53.68;52186.94;5072549;28;20207;-77
2024/04/01 08:42:20;;;;;;;1.23;0.80;;;;;;;-145.69;55.42;52179.03;5071652;28;20210;-78
2024/04/01 08:44:48;;;;;;;2.30;0.50;;;;;;;-145.69;52.60;52153.28;5072489;28;20225;-79
2024/04/01 08:47:18;;;;;;;0.60;0.60;;;;;;;-145.69;53.40;52135.47;5071837;28;20676;-78
2024/04/01 08:50:08;;;;;;;0.90;0.50;;;;;;;-145.69;53.88;52143.38;5072386;28;20226;-79
2024/04/01 08:52:43;;;;;;;0.50;0.50;;;;;;;-145.69;53.35;52171.09;5072258;28;20701;-79
2024/04/01 08:55:10;;;;;;;0.60;0.60;;;;;;;-145.69;53.50;52155.25;5072180;28;20707;-80
2024/04/01 08:57:36;;;;;;;0.50;0.50;;;;;;;-145.69;53.67;52163.19;5075424;28;20222;-80
2024/04/01 09:00:08;;;;;;;1.83;0.60;;;;;;;-145.69;53.83;52145.34;5075931;28;20206;-81
2024/04/01 09:02:35;;;;;;;2.00;1.20;;;;;;;-145.69;54.25;52145.34;5074459;28;20209;-79
2024/04/01 09:05:04;;;;;;;1.87;1.10;;;;;;;-145.69;54.71;52161.19;5075980;28;20282;-80
2024/04/01 09:07:29;;;;;;;0.60;0.60;;;;;;;-145.69;54.87;52179.03;5075966;28;20210;-78
2024/04/01 09:10:00;;;;;;;0.60;0.60;;;;;;;-145.69;54.93;52137.44;5075832;28;20557;-78
2024/04/01 09:12:26;;;;;;;1.07;0.50;;;;;;;-145.69;53.75;52169.13;5075804;28;20592;-78
2024/04/01 09:14:53;;;;;;;1.20;0.77;;;;;;;-145.69;54.56;52137.44;5076063;28;20244;-78
2024/04/01 09:17:26;;;;;;;0.70;0.70;;;;;;;-145.69;53.29;52131.50;5065710;28;20243;-78
2024/04/01 09:20:04;;;;;;;1.53;0.73;;;;;;;-145.69;53.07;52131.50;5059152;28;20203;-78
2024/04/01 09:22:31;;;;;;;0.80;0.50;;;;;;;-145.69;52.49;52115.66;5076030;28;20203;-78
2024/04/01 09:24:57;;;;;;;0.60;0.50;;;;;;;-145.69;52.42;52147.34;5076143;28;20202;-78
2024/04/01 09:27:26;;;;;;;2.43;1.00;;;;;;;-145.69;51.08;52121.59;5075413;28;20570;-78
2024/04/01 09:29:52;;;;;;;0.52;0.50;;;;;;;-145.69;51.40;52125.56;5076043;28;20289;-78
2024/04/01 09:32:22;;;;;;;1.27;1.15;;;;;;;-145.69;51.74;52151.28;5074815;28;20195;-77
2024/04/01 09:34:58;;;;;;;0.80;0.80;;;;;;;-145.69;50.69;52119.63;5074833;28;20681;-78
2024/04/01 09:37:25;;;;;;;0.52;0.52;;;;;;;-145.69;50.52;52125.56;5075317;28;20265;-78
2024/04/01 09:39:54;;;;;;;0.82;0.45;;;;;;;-145.69;50.29;52167.13;5075618;28;20206;-77
2024/04/01 09:42:20;;;;;;;0.50;0.50;;;;;;;-145.69;49.63;52145.34;5075548;28;20206;-79
2024/04/01 09:44:47;;;;;;;0.60;0.60;;;;;;;-145.69;49.81;52123.56;5075102;28;20281;-78
2024/04/01 09:47:15;;;;;;;0.60;0.60;;;;;;;-145.69;50.21;52123.56;5075202;28;20211;-77
2024/04/01 09:49:43;;;;;;;0.43;0.43;;;;;;;-145.69;50.20;52147.34;5075447;28;20199;-78
2024/04/01 09:52:12;;;;;;;0.50;0.50;;;;;;;-145.69;50.31;52163.19;5075373;28;20206;-78
2024/04/01 09:54:38;;;;;;;0.57;0.57;;;;;;;-145.69;48.78;52111.69;5075036;28;20202;-80
2024/04/01 09:58:01;;;;;;;0.40;0.40;;;;;;;-145.69;47.32;52125.56;5075103;28;20256;-78
2024/04/01 10:00:35;;;;;;;0.52;0.52;;;;;;;-145.69;47.25;52147.34;5066090;28;20199;-80
2024/04/01 10:03:39;;;;;;;0.50;0.50;;;;;;;-145.69;48.03;52111.69;5072625;28;20606;-77
2024/04/01 10:06:43;;;;;;;0.93;0.68;;;;;;;-145.69;46.43;52155.25;5069043;28;20199;-78
2024/04/01 10:09:51;;;;;;;0.60;0.60;;;;;;;-145.69;48.10;52125.56;5074261;28;20199;-77
2024/04/01 10:12:55;;;;;;;0.40;0.40;;;;;;;-145.69;48.45;52139.41;5075481;28;20252;-78
2024/04/01 10:16:02;;;;;;;0.50;0.40;;;;;;;-145.69;48.70;52115.66;5074907;28;20222;-77
2024/04/01 10:18:51;;;;;;;0.60;0.60;;;;;;;-145.69;49.15;52127.53;5055449;28;20203;-79
2024/04/01 10:21:37;;;;;;;0.40;0.40;;;;;;;-145.69;47.27;52129.50;5071376;28;20199;-79
2024/04/01 10:24:38;;;;;;;0.60;0.60;;;;;;;-145.69;47.98;52109.72;5075147;28;20202;-80
2024/04/01 10:27:31;;;;;;;0.50;0.40;;;;;;;-145.69;48.15;52133.47;5075283;28;20202;-80
2024/04/01 10:30:27;;;;;;;1.17;0.60;;;;;;;-145.69;48.67;52141.41;5072069;28;20207;-80
2024/04/01 10:33:26;;;;;;;0.50;0.50;;;;;;;-145.69;48.42;52131.50;5074686;28;20208;-79
2024/04/01 10:36:07;;;;;;;0.63;0.40;;;;;;;-145.69;47.50;52119.63;5074931;28;20203;-80
2024/04/01 10:39:17;;;;;;;0.50;0.50;;;;;;;-145.69;48.36;52155.25;5074992;28;20195;-79
2024/04/01 10:42:31;;;;;;;0.57;0.57;;;;;;;-145.69;47.63;52127.53;5064177;28;20206;-79
2024/04/01 10:45:33;;;;;;;0.30;0.30;;;;;;;-145.69;46.14;52131.50;5074405;28;20249;-80
2024/04/01 10:48:16;;;;;;;0.40;0.40;;;;;;;-145.69;46.16;52143.38;5074815;28;20212;-79
2024/04/01 10:51:23;;;;;;;0.50;0.50;;;;;;;-145.69;47.04;52127.53;5074592;28;20202;-80
2024/04/01 10:53:57;;;;;;;0.83;0.50;;;;;;;-145.69;46.08;52143.38;5074626;28;20279;-80
2024/04/01 10:57:08;;;;;;;0.70;0.40;;;;;;;-145.69;46.71;52127.53;5074467;28;20209;-78
2024/04/01 11:00:11;;;;;;;0.40;0.40;;;;;;;-145.69;46.99;52137.44;5051947;28;20779;-78
2024/04/01 11:03:16;;;;;;;0.40;0.40;;;;;;;-145.69;48.13;52133.47;5073978;28;20271;-80
2024/04/01 11:06:15;;;;;;;0.40;0.40;;;;;;;-145.69;47.94;52125.56;5054424;28;20207;-80
2024/04/01 11:08:58;;;;;;;0.50;0.50;;;;;;;-145.69;47.40;52149.31;5054346;28;20195;-79
2024/04/01 11:11:35;;;;;;;1.27;0.50;;;;;;;-145.69;46.31;52147.34;5054210;28;20589;-80
2024/04/01 11:14:03;;;;;;;0.70;0.70;;;;;;;-145.69;46.10;52171.09;5054163;28;20276;-80
2024/04/01 11:16:31;;;;;;;0.40;0.40;;;;;;;-145.69;46.22;52115.66;5053859;28;20296;-80
2024/04/01 11:19:16;;;;;;;0.50;0.50;;;;;;;-145.69;47.07;52099.81;5055782;28;20206;-80
2024/04/01 11:21:56;;;;;;;0.50;0.50;;;;;;;-145.69;46.04;52107.72;5074016;28;20205;-79
2024/04/01 11:24:41;;;;;;;0.30;0.30;;;;;;;-145.69;45.52;52131.50;5073888;28;20640;-79
2024/04/01 11:27:31;;;;;;;0.40;0.40;;;;;;;-145.69;45.62;52157.25;5073542;28;20202;-79
2024/04/01 11:30:09;;;;;;;0.47;0.47;;;;;;;-145.69;46.61;52135.47;5067749;28;20653;-79